createdAt,value
2022-09-12T00:00:00.475Z,100559
2022-09-12T00:01:03.014Z,100545
2022-09-12T00:02:00.364Z,100545
2022-09-12T00:03:00.277Z,100545
2022-09-12T00:04:00.631Z,100545
2022-09-12T00:05:00.555Z,100545
2022-09-12T00:06:00.378Z,100549
2022-09-12T00:07:00.308Z,100549
2022-09-12T00:08:00.320Z,100549
2022-09-12T00:09:01.852Z,100549
2022-09-12T00:10:00.291Z,100549
2022-09-12T00:11:03.502Z,100538
2022-09-12T00:12:00.408Z,100538
2022-09-12T00:13:00.310Z,100538
2022-09-12T00:14:00.885Z,100538
2022-09-12T00:15:00.325Z,100538
2022-09-12T00:16:00.444Z,100536
2022-09-12T00:17:00.763Z,100536
2022-09-12T00:18:00.283Z,100536
2022-09-12T00:19:00.640Z,100536
2022-09-12T00:20:00.368Z,100536
2022-09-12T00:21:01.418Z,100532
2022-09-12T00:22:00.323Z,100532
2022-09-12T00:23:00.491Z,100532
2022-09-12T00:24:00.416Z,100532
2022-09-12T00:25:00.501Z,100532
2022-09-12T00:26:03.790Z,100528
2022-09-12T00:27:00.277Z,100528
2022-09-12T00:28:00.387Z,100528
2022-09-12T00:29:00.370Z,100528
2022-09-12T00:30:00.295Z,100528
2022-09-12T00:31:02.977Z,100532
2022-09-12T00:32:00.455Z,100532
2022-09-12T00:33:00.287Z,100532
2022-09-12T00:34:00.282Z,100532
2022-09-12T00:35:00.389Z,100532
2022-09-12T00:36:03.399Z,100526
2022-09-12T00:37:00.353Z,100526
2022-09-12T00:38:00.291Z,100526
2022-09-12T00:39:00.426Z,100526
2022-09-12T00:40:00.887Z,100526
2022-09-12T00:41:00.310Z,100527
2022-09-12T00:42:00.306Z,100527
2022-09-12T00:43:00.351Z,100527
2022-09-12T00:44:01.842Z,100527
2022-09-12T00:45:00.318Z,100527
2022-09-12T00:46:03.770Z,100526
2022-09-12T00:47:04.840Z,100526
2022-09-12T00:48:01.536Z,100526
2022-09-12T00:49:10.198Z,100526
2022-09-12T00:50:06.468Z,100526
2022-09-12T00:51:00.991Z,100519
2022-09-12T00:52:08.849Z,100519
2022-09-12T00:53:06.366Z,100519
2022-09-12T00:54:03.055Z,100519
2022-09-12T00:55:04.681Z,100519
2022-09-12T00:56:00.661Z,100522
2022-09-12T00:57:02.943Z,100522
2022-09-12T00:58:00.292Z,100522
2022-09-12T00:59:04.215Z,100522
2022-09-12T01:00:05.015Z,100522
2022-09-12T01:01:00.509Z,100514
2022-09-12T01:02:00.465Z,100514
2022-09-12T01:03:04.519Z,100514
2022-09-12T01:04:00.815Z,100514
2022-09-12T01:05:00.564Z,100514
2022-09-12T01:06:06.318Z,100511
2022-09-12T01:07:02.538Z,100511
2022-09-12T01:08:02.147Z,100511
2022-09-12T01:09:00.460Z,100511
2022-09-12T01:10:00.397Z,100511
2022-09-12T01:11:00.659Z,100515
2022-09-12T01:12:00.981Z,100515
2022-09-12T01:13:02.280Z,100515
2022-09-12T01:14:00.346Z,100515
2022-09-12T01:15:00.628Z,100515
2022-09-12T01:16:02.255Z,100509
2022-09-12T01:17:00.605Z,100509
2022-09-12T01:18:08.256Z,100509
2022-09-12T01:19:01.298Z,100509
2022-09-12T01:20:10.219Z,100509
2022-09-12T01:21:07.899Z,100502
2022-09-12T01:22:00.269Z,100502
2022-09-12T01:23:10.170Z,100502
2022-09-12T01:24:01.333Z,100502
2022-09-12T01:25:01.313Z,100502
2022-09-12T01:26:10.212Z,100497
2022-09-12T01:27:10.193Z,100497
2022-09-12T01:28:01.307Z,100497
2022-09-12T01:29:10.295Z,100497
2022-09-12T01:30:03.629Z,100497
2022-09-12T01:31:04.881Z,100488
2022-09-12T01:32:10.204Z,100488
2022-09-12T01:33:00.264Z,100488
2022-09-12T01:34:10.195Z,100488
2022-09-12T01:35:08.451Z,100488
2022-09-12T01:36:08.365Z,100490
2022-09-12T01:37:08.641Z,100490
2022-09-12T01:38:00.289Z,100490
2022-09-12T01:39:03.130Z,100490
2022-09-12T01:40:10.262Z,100490
2022-09-12T01:41:09.323Z,100487
2022-09-12T01:42:10.170Z,100487
2022-09-12T01:43:10.198Z,100487
2022-09-12T01:44:07.989Z,100487
2022-09-12T01:45:08.630Z,100487
2022-09-12T01:46:06.030Z,100480
2022-09-12T01:47:10.188Z,100480
2022-09-12T01:48:06.020Z,100480
2022-09-12T01:49:06.375Z,100480
2022-09-12T01:50:10.190Z,100480
2022-09-12T01:51:06.253Z,100483
2022-09-12T01:52:10.182Z,100483
2022-09-12T01:53:04.082Z,100483
2022-09-12T01:54:04.753Z,100483
2022-09-12T01:55:09.446Z,100483
2022-09-12T01:56:10.226Z,100476
2022-09-12T01:57:03.029Z,100476
2022-09-12T01:58:10.222Z,100476
2022-09-12T01:59:02.380Z,100476
2022-09-12T02:00:02.649Z,100476
2022-09-12T02:01:05.797Z,100473
2022-09-12T02:02:04.204Z,100473
2022-09-12T02:03:03.920Z,100473
2022-09-12T02:04:10.235Z,100473
2022-09-12T02:05:04.840Z,100473
2022-09-12T02:06:04.939Z,100474
2022-09-12T02:07:05.970Z,100474
2022-09-12T02:08:10.250Z,100474
2022-09-12T02:09:03.100Z,100474
2022-09-12T02:10:07.773Z,100474
2022-09-12T02:11:02.947Z,100464
2022-09-12T02:12:00.610Z,100464
2022-09-12T02:13:03.481Z,100464
2022-09-12T02:14:03.361Z,100464
2022-09-12T02:15:02.669Z,100464
2022-09-12T02:16:08.757Z,100462
2022-09-12T02:17:05.412Z,100462
2022-09-12T02:18:03.638Z,100462
2022-09-12T02:19:06.464Z,100462
2022-09-12T02:20:04.333Z,100462
2022-09-12T02:21:00.495Z,100457
2022-09-12T02:22:01.606Z,100457
2022-09-12T02:23:02.166Z,100457
2022-09-12T02:24:03.075Z,100457
2022-09-12T02:25:01.684Z,100457
2022-09-12T02:26:04.835Z,100445
2022-09-12T02:27:03.609Z,100445
2022-09-12T02:28:03.338Z,100445
2022-09-12T02:29:01.129Z,100445
2022-09-12T02:30:00.420Z,100445
2022-09-12T02:31:08.488Z,100436
2022-09-12T02:32:04.359Z,100436
2022-09-12T02:33:05.482Z,100436
2022-09-12T02:34:08.427Z,100436
2022-09-12T02:35:03.833Z,100436
2022-09-12T02:36:08.469Z,100440
2022-09-12T02:37:00.332Z,100440
2022-09-12T02:38:03.552Z,100440
2022-09-12T02:39:00.481Z,100440
2022-09-12T02:40:00.837Z,100440
2022-09-12T02:41:00.512Z,100434
2022-09-12T02:42:01.799Z,100434
2022-09-12T02:43:01.998Z,100434
2022-09-12T02:44:00.878Z,100434
2022-09-12T02:45:00.813Z,100434
2022-09-12T02:46:00.349Z,100435
2022-09-12T02:47:03.764Z,100435
2022-09-12T02:48:03.547Z,100435
2022-09-12T02:49:00.307Z,100435
2022-09-12T02:50:00.582Z,100435
2022-09-12T02:51:01.106Z,100429
2022-09-12T02:52:00.589Z,100429
2022-09-12T02:53:01.077Z,100429
2022-09-12T02:54:01.082Z,100429
2022-09-12T02:55:01.473Z,100429
2022-09-12T02:56:00.375Z,100425
2022-09-12T02:57:00.319Z,100425
2022-09-12T02:58:02.260Z,100425
2022-09-12T02:59:03.819Z,100425
2022-09-12T03:00:00.719Z,100425
2022-09-12T03:01:10.230Z,100426
2022-09-12T03:02:06.222Z,100426
2022-09-12T03:03:10.175Z,100426
2022-09-12T03:04:03.563Z,100426
2022-09-12T03:05:01.306Z,100426
2022-09-12T03:06:02.055Z,100417
2022-09-12T03:07:00.525Z,100417
2022-09-12T03:08:10.163Z,100417
2022-09-12T03:09:07.600Z,100417
2022-09-12T03:10:10.206Z,100417
2022-09-12T03:11:08.169Z,100414
2022-09-12T03:12:05.569Z,100414
2022-09-12T03:13:01.276Z,100414
2022-09-12T03:14:10.174Z,100414
2022-09-12T03:15:00.267Z,100414
2022-09-12T03:16:10.179Z,100415
2022-09-12T03:17:03.533Z,100415
2022-09-12T03:18:00.244Z,100415
2022-09-12T03:19:10.170Z,100415
2022-09-12T03:20:09.195Z,100415
2022-09-12T03:21:10.168Z,100418
2022-09-12T03:22:01.316Z,100418
2022-09-12T03:23:05.234Z,100418
2022-09-12T03:24:03.600Z,100418
2022-09-12T03:25:07.991Z,100418
2022-09-12T03:26:04.858Z,100416
2022-09-12T03:27:07.651Z,100416
2022-09-12T03:28:04.160Z,100416
2022-09-12T03:29:02.366Z,100416
2022-09-12T03:30:00.696Z,100416
2022-09-12T03:31:10.169Z,100412
2022-09-12T03:32:00.337Z,100412
2022-09-12T03:33:00.532Z,100412
2022-09-12T03:34:00.323Z,100412
2022-09-12T03:35:00.620Z,100412
2022-09-12T03:36:00.643Z,100403
2022-09-12T03:37:00.619Z,100403
2022-09-12T03:38:00.413Z,100403
2022-09-12T03:39:00.264Z,100403
2022-09-12T03:40:00.644Z,100403
2022-09-12T03:41:00.277Z,100407
2022-09-12T03:42:00.469Z,100407
2022-09-12T03:43:00.288Z,100407
2022-09-12T03:44:00.545Z,100407
2022-09-12T03:45:00.333Z,100407
2022-09-12T03:46:00.476Z,100408
2022-09-12T03:47:00.778Z,100408
2022-09-12T03:48:00.353Z,100408
2022-09-12T03:49:00.829Z,100408
2022-09-12T03:50:00.528Z,100408
2022-09-12T03:51:04.737Z,100395
2022-09-12T03:52:00.314Z,100395
2022-09-12T03:53:01.418Z,100395
2022-09-12T03:54:00.319Z,100395
2022-09-12T03:55:00.435Z,100395
2022-09-12T03:56:04.817Z,100396
2022-09-12T03:57:00.255Z,100396
2022-09-12T03:58:00.271Z,100396
2022-09-12T03:59:00.686Z,100396
2022-09-12T04:00:00.370Z,100396
2022-09-12T04:01:00.333Z,100400
2022-09-12T04:02:00.514Z,100400
2022-09-12T04:03:00.298Z,100400
2022-09-12T04:04:00.325Z,100400
2022-09-12T04:05:00.363Z,100400
2022-09-12T04:06:00.287Z,100406
2022-09-12T04:07:00.260Z,100406
2022-09-12T04:08:00.437Z,100406
2022-09-12T04:09:00.264Z,100406
2022-09-12T04:10:00.260Z,100406
2022-09-12T04:11:03.557Z,100399
2022-09-12T04:12:00.366Z,100399
2022-09-12T04:13:00.261Z,100399
2022-09-12T04:14:00.358Z,100399
2022-09-12T04:15:00.263Z,100399
2022-09-12T04:16:00.559Z,100396
2022-09-12T04:17:00.328Z,100396
2022-09-12T04:18:05.093Z,100396
2022-09-12T04:19:00.329Z,100396
2022-09-12T04:20:00.412Z,100396
2022-09-12T04:21:08.999Z,100395
2022-09-12T04:22:00.271Z,100395
2022-09-12T04:23:00.281Z,100395
2022-09-12T04:24:00.405Z,100395
2022-09-12T04:25:00.572Z,100395
2022-09-12T04:26:01.350Z,100397
2022-09-12T04:27:01.384Z,100397
2022-09-12T04:28:00.466Z,100397
2022-09-12T04:29:00.277Z,100397
2022-09-12T04:30:00.347Z,100397
2022-09-12T04:31:01.520Z,100393
2022-09-12T04:32:00.387Z,100393
2022-09-12T04:33:00.411Z,100393
2022-09-12T04:34:00.290Z,100393
2022-09-12T04:35:00.382Z,100393
2022-09-12T04:36:04.611Z,100382
2022-09-12T04:37:00.286Z,100382
2022-09-12T04:38:00.310Z,100382
2022-09-12T04:39:01.211Z,100382
2022-09-12T04:40:00.447Z,100382
2022-09-12T04:41:00.440Z,100377
2022-09-12T04:42:00.611Z,100377
2022-09-12T04:43:00.290Z,100377
2022-09-12T04:44:01.853Z,100377
2022-09-12T04:45:00.278Z,100377
2022-09-12T04:46:04.102Z,100386
2022-09-12T04:47:00.314Z,100386
2022-09-12T04:48:00.372Z,100386
2022-09-12T04:49:00.477Z,100386
2022-09-12T04:50:00.342Z,100386
2022-09-12T04:51:09.084Z,100387
2022-09-12T04:52:00.897Z,100387
2022-09-12T04:53:00.453Z,100387
2022-09-12T04:54:01.604Z,100387
2022-09-12T04:55:00.272Z,100387
2022-09-12T04:56:02.729Z,100389
2022-09-12T04:57:00.277Z,100389
2022-09-12T04:58:01.057Z,100389
2022-09-12T04:59:00.408Z,100389
2022-09-12T05:00:03.983Z,100389
2022-09-12T05:01:08.768Z,100377
2022-09-12T05:02:00.362Z,100377
2022-09-12T05:03:00.286Z,100377
2022-09-12T05:04:00.554Z,100377
2022-09-12T05:05:00.303Z,100377
2022-09-12T05:06:01.825Z,100374
2022-09-12T05:07:00.353Z,100374
2022-09-12T05:08:00.371Z,100374
2022-09-12T05:09:01.048Z,100374
2022-09-12T05:10:00.386Z,100374
2022-09-12T05:11:02.296Z,100378
2022-09-12T05:12:04.099Z,100378
2022-09-12T05:13:00.278Z,100378
2022-09-12T05:14:00.571Z,100378
2022-09-12T05:15:00.810Z,100378
2022-09-12T05:16:01.255Z,100378
2022-09-12T05:17:00.527Z,100378
2022-09-12T05:18:00.287Z,100378
2022-09-12T05:19:00.371Z,100378
2022-09-12T05:20:00.347Z,100378
2022-09-12T05:21:01.185Z,100375
2022-09-12T05:22:00.356Z,100375
2022-09-12T05:23:00.287Z,100375
2022-09-12T05:24:00.412Z,100375
2022-09-12T05:25:00.283Z,100375
2022-09-12T05:26:01.094Z,100373
2022-09-12T05:27:00.446Z,100373
2022-09-12T05:28:00.363Z,100373
2022-09-12T05:29:02.675Z,100373
2022-09-12T05:30:00.295Z,100373
2022-09-12T05:31:02.277Z,100376
2022-09-12T05:32:00.686Z,100376
2022-09-12T05:33:00.303Z,100376
2022-09-12T05:34:00.331Z,100376
2022-09-12T05:35:00.329Z,100376
2022-09-12T05:36:00.761Z,100373
2022-09-12T05:37:00.307Z,100373
2022-09-12T05:38:00.372Z,100373
2022-09-12T05:39:00.330Z,100373
2022-09-12T05:40:00.490Z,100373
2022-09-12T05:41:02.697Z,100377
2022-09-12T05:42:00.304Z,100377
2022-09-12T05:43:00.349Z,100377
2022-09-12T05:44:03.140Z,100377
2022-09-12T05:45:00.340Z,100377
2022-09-12T05:46:01.030Z,100381
2022-09-12T05:47:00.290Z,100381
2022-09-12T05:48:00.395Z,100381
2022-09-12T05:49:03.120Z,100381
2022-09-12T05:50:00.299Z,100381
2022-09-12T05:51:01.396Z,100380
2022-09-12T05:52:00.398Z,100380
2022-09-12T05:53:00.394Z,100380
2022-09-12T05:54:01.460Z,100380
2022-09-12T05:55:00.328Z,100380
2022-09-12T05:56:01.028Z,100381
2022-09-12T05:57:00.287Z,100381
2022-09-12T05:58:00.267Z,100381
2022-09-12T05:59:01.433Z,100381
2022-09-12T06:00:00.434Z,100381
2022-09-12T06:01:01.159Z,100381
2022-09-12T06:02:00.300Z,100381
2022-09-12T06:03:00.298Z,100381
2022-09-12T06:04:01.395Z,100381
2022-09-12T06:05:00.328Z,100381
2022-09-12T06:06:01.266Z,100378
2022-09-12T06:07:00.286Z,100378
2022-09-12T06:08:00.438Z,100378
2022-09-12T06:09:02.371Z,100378
2022-09-12T06:10:00.527Z,100378
2022-09-12T06:11:02.380Z,100379
2022-09-12T06:12:00.339Z,100379
2022-09-12T06:13:00.294Z,100379
2022-09-12T06:14:00.920Z,100379
2022-09-12T06:15:00.306Z,100379
2022-09-12T06:16:04.563Z,100381
2022-09-12T06:17:00.285Z,100381
2022-09-12T06:18:00.270Z,100381
2022-09-12T06:19:02.269Z,100381
2022-09-12T06:20:00.393Z,100381
2022-09-12T06:21:02.526Z,100375
2022-09-12T06:22:00.292Z,100375
2022-09-12T06:23:00.271Z,100375
2022-09-12T06:24:00.855Z,100375
2022-09-12T06:25:00.274Z,100375
2022-09-12T06:26:00.725Z,100374
2022-09-12T06:27:00.288Z,100374
2022-09-12T06:28:00.328Z,100374
2022-09-12T06:29:00.284Z,100374
2022-09-12T06:30:00.326Z,100374
2022-09-12T06:31:01.131Z,100362
2022-09-12T06:32:00.358Z,100362
2022-09-12T06:33:00.263Z,100362
2022-09-12T06:34:01.340Z,100362
2022-09-12T06:35:00.291Z,100362
2022-09-12T06:36:02.680Z,100362
2022-09-12T06:37:00.284Z,100362
2022-09-12T06:38:00.265Z,100362
2022-09-12T06:39:01.665Z,100362
2022-09-12T06:40:01.855Z,100362
2022-09-12T06:41:02.195Z,100361
2022-09-12T06:42:00.271Z,100361
2022-09-12T06:43:00.276Z,100361
2022-09-12T06:44:00.845Z,100361
2022-09-12T06:45:00.267Z,100361
2022-09-12T06:46:01.154Z,100365
2022-09-12T06:47:00.264Z,100365
2022-09-12T06:48:00.402Z,100365
2022-09-12T06:49:00.275Z,100365
2022-09-12T06:50:00.271Z,100365
2022-09-12T06:51:03.029Z,100369
2022-09-12T06:52:00.387Z,100369
2022-09-12T06:53:00.296Z,100369
2022-09-12T06:54:00.286Z,100369
2022-09-12T06:55:00.269Z,100369
2022-09-12T06:56:01.701Z,100378
2022-09-12T06:57:00.284Z,100378
2022-09-12T06:58:00.247Z,100378
2022-09-12T06:59:00.301Z,100378
2022-09-12T07:00:00.438Z,100378
2022-09-12T07:01:01.124Z,100380
2022-09-12T07:02:00.287Z,100380
2022-09-12T07:03:00.261Z,100380
2022-09-12T07:04:01.089Z,100380
2022-09-12T07:05:00.272Z,100380
2022-09-12T07:06:04.457Z,100377
2022-09-12T07:07:00.263Z,100377
2022-09-12T07:08:00.283Z,100377
2022-09-12T07:09:01.269Z,100377
2022-09-12T07:10:00.312Z,100377
2022-09-12T07:11:07.468Z,100377
2022-09-12T07:12:00.330Z,100377
2022-09-12T07:13:00.265Z,100377
2022-09-12T07:14:00.963Z,100377
2022-09-12T07:15:00.267Z,100377
2022-09-12T07:16:01.149Z,100381
2022-09-12T07:17:00.299Z,100381
2022-09-12T07:18:00.270Z,100381
2022-09-12T07:19:01.138Z,100381
2022-09-12T07:20:00.448Z,100381
2022-09-12T07:21:01.013Z,100385
2022-09-12T07:22:00.336Z,100385
2022-09-12T07:23:00.264Z,100385
2022-09-12T07:24:00.345Z,100385
2022-09-12T07:25:00.268Z,100385
2022-09-12T07:26:00.749Z,100383
2022-09-12T07:27:00.257Z,100383
2022-09-12T07:28:00.299Z,100383
2022-09-12T07:29:25.124Z,100383
2022-09-12T07:30:00.300Z,100383
2022-09-12T07:31:10.240Z,100379
2022-09-12T07:32:00.325Z,100379
2022-09-12T07:33:00.258Z,100379
2022-09-12T07:34:03.649Z,100379
2022-09-12T07:35:00.312Z,100379
2022-09-12T07:36:03.500Z,100389
2022-09-12T07:37:00.261Z,100389
2022-09-12T07:38:00.265Z,100389
2022-09-12T07:39:00.262Z,100389
2022-09-12T07:40:00.485Z,100389
2022-09-12T07:41:00.332Z,100377
2022-09-12T07:42:00.268Z,100377
2022-09-12T07:43:00.388Z,100377
2022-09-12T07:44:01.885Z,100377
2022-09-12T07:45:00.247Z,100377
2022-09-12T07:46:00.332Z,100378
2022-09-12T07:47:00.427Z,100378
2022-09-12T07:48:00.329Z,100378
2022-09-12T07:49:00.836Z,100378
2022-09-12T07:50:00.274Z,100378
2022-09-12T07:51:01.280Z,100375
2022-09-12T07:52:00.397Z,100375
2022-09-12T07:53:00.276Z,100375
2022-09-12T07:54:00.275Z,100375
2022-09-12T07:55:00.268Z,100375
2022-09-12T07:56:00.428Z,100369
2022-09-12T07:57:00.270Z,100369
2022-09-12T07:58:00.259Z,100369
2022-09-12T07:59:00.272Z,100369
2022-09-12T08:00:00.374Z,100369
2022-09-12T08:01:09.030Z,100358
2022-09-12T08:02:00.281Z,100358
2022-09-12T08:03:00.412Z,100358
2022-09-12T08:04:00.353Z,100358
2022-09-12T08:05:00.395Z,100358
2022-09-12T08:06:02.174Z,100356
2022-09-12T08:07:00.257Z,100356
2022-09-12T08:08:00.318Z,100356
2022-09-12T08:09:00.352Z,100356
2022-09-12T08:10:00.372Z,100356
2022-09-12T08:11:01.072Z,100342
2022-09-12T08:12:00.470Z,100342
2022-09-12T08:13:00.264Z,100342
2022-09-12T08:14:00.265Z,100342
2022-09-12T08:15:00.308Z,100342
2022-09-12T08:16:01.277Z,100335
2022-09-12T08:17:00.265Z,100335
2022-09-12T08:18:00.250Z,100335
2022-09-12T08:19:01.008Z,100335
2022-09-12T08:20:00.435Z,100335
2022-09-12T08:21:02.585Z,100329
2022-09-12T08:22:00.277Z,100329
2022-09-12T08:23:00.261Z,100329
2022-09-12T08:24:01.692Z,100329
2022-09-12T08:25:00.284Z,100329
2022-09-12T08:26:05.304Z,100325
2022-09-12T08:27:00.260Z,100325
2022-09-12T08:28:00.361Z,100325
2022-09-12T08:29:00.417Z,100325
2022-09-12T08:30:00.317Z,100325
2022-09-12T08:31:02.339Z,100336
2022-09-12T08:32:00.308Z,100336
2022-09-12T08:33:00.302Z,100336
2022-09-12T08:34:00.273Z,100336
2022-09-12T08:35:00.730Z,100336
2022-09-12T08:36:06.650Z,100338
2022-09-12T08:37:00.338Z,100338
2022-09-12T08:38:00.296Z,100338
2022-09-12T08:39:01.930Z,100338
2022-09-12T08:40:00.448Z,100338
2022-09-12T08:41:03.611Z,100347
2022-09-12T08:42:01.334Z,100347
2022-09-12T08:43:06.299Z,100347
2022-09-12T08:44:01.297Z,100347
2022-09-12T08:45:07.945Z,100347
2022-09-12T08:46:04.585Z,100343
2022-09-12T08:47:10.181Z,100343
2022-09-12T08:48:01.789Z,100343
2022-09-12T08:49:01.527Z,100343
2022-09-12T08:50:07.656Z,100343
2022-09-12T08:51:00.820Z,100352
2022-09-12T08:52:06.052Z,100352
2022-09-12T08:53:01.254Z,100352
2022-09-12T08:54:01.358Z,100352
2022-09-12T08:55:01.718Z,100352
2022-09-12T08:56:01.220Z,100356
2022-09-12T08:57:03.001Z,100356
2022-09-12T08:58:01.521Z,100356
2022-09-12T08:59:00.289Z,100356
2022-09-12T09:00:01.788Z,100356
2022-09-12T09:01:10.227Z,100364
2022-09-12T09:02:01.501Z,100364
2022-09-12T09:03:01.269Z,100364
2022-09-12T09:04:03.521Z,100364
2022-09-12T09:05:00.248Z,100364
2022-09-12T09:06:07.506Z,100370
2022-09-12T09:07:07.783Z,100370
2022-09-12T09:08:10.193Z,100370
2022-09-12T09:09:01.251Z,100370
2022-09-12T09:10:00.263Z,100370
2022-09-12T09:11:08.615Z,100361
2022-09-12T09:12:11.516Z,100361
2022-09-12T09:13:10.172Z,100361
2022-09-12T09:14:05.019Z,100361
2022-09-12T09:15:03.555Z,100361
2022-09-12T09:16:08.348Z,100352
2022-09-12T09:17:00.982Z,100352
2022-09-12T09:18:03.246Z,100352
2022-09-12T09:19:03.239Z,100352
2022-09-12T09:20:01.264Z,100352
2022-09-12T09:21:02.809Z,100350
2022-09-12T09:22:01.320Z,100350
2022-09-12T09:23:01.261Z,100350
2022-09-12T09:24:03.109Z,100350
2022-09-12T09:25:04.538Z,100350
2022-09-12T09:26:05.170Z,100339
2022-09-12T09:27:01.780Z,100339
2022-09-12T09:28:03.638Z,100339
2022-09-12T09:29:10.166Z,100339
2022-09-12T09:30:01.081Z,100339
2022-09-12T09:31:00.526Z,100331
2022-09-12T09:32:02.345Z,100331
2022-09-12T09:33:02.075Z,100331
2022-09-12T09:34:00.438Z,100331
2022-09-12T09:35:10.169Z,100331
2022-09-12T09:36:06.362Z,100328
2022-09-12T09:37:03.567Z,100328
2022-09-12T09:38:10.167Z,100328
2022-09-12T09:39:04.069Z,100328
2022-09-12T09:40:10.289Z,100328
2022-09-12T09:41:10.174Z,100323
2022-09-12T09:42:01.282Z,100323
2022-09-12T09:43:05.236Z,100323
2022-09-12T09:44:00.691Z,100323
2022-09-12T09:45:03.388Z,100323
2022-09-12T09:46:00.399Z,100330
2022-09-12T09:47:00.431Z,100330
2022-09-12T09:48:10.171Z,100330
2022-09-12T09:49:01.938Z,100330
2022-09-12T09:50:00.290Z,100330
2022-09-12T09:51:01.971Z,100334
2022-09-12T09:52:01.448Z,100334
2022-09-12T09:53:01.838Z,100334
2022-09-12T09:54:02.490Z,100334
2022-09-12T09:55:00.545Z,100334
2022-09-12T09:56:02.047Z,100330
2022-09-12T09:57:00.407Z,100330
2022-09-12T09:58:00.270Z,100330
2022-09-12T09:59:08.470Z,100330
2022-09-12T10:00:10.200Z,100330
2022-09-12T10:01:01.396Z,100321
2022-09-12T10:02:02.455Z,100321
2022-09-12T10:03:01.756Z,100321
2022-09-12T10:04:00.310Z,100321
2022-09-12T10:05:00.391Z,100321
2022-09-12T10:06:01.675Z,100316
2022-09-12T10:07:01.296Z,100316
2022-09-12T10:08:00.382Z,100316
2022-09-12T10:09:05.614Z,100316
2022-09-12T10:10:05.822Z,100316
2022-09-12T10:11:01.260Z,100308
2022-09-12T10:12:10.181Z,100308
2022-09-12T10:13:08.521Z,100308
2022-09-12T10:14:00.600Z,100308
2022-09-12T10:15:01.938Z,100308
2022-09-12T10:16:02.286Z,100317
2022-09-12T10:17:01.862Z,100317
2022-09-12T10:18:00.386Z,100317
2022-09-12T10:19:01.315Z,100317
2022-09-12T10:20:19.900Z,100317
2022-09-12T10:21:00.586Z,100327
2022-09-12T10:22:00.949Z,100327
2022-09-12T10:23:02.584Z,100327
2022-09-12T10:24:00.238Z,100327
2022-09-12T10:25:00.574Z,100327
2022-09-12T10:26:01.596Z,100325
2022-09-12T10:27:10.173Z,100325
2022-09-12T10:28:00.930Z,100325
2022-09-12T10:29:03.246Z,100325
2022-09-12T10:30:04.644Z,100325
2022-09-12T10:31:00.661Z,100311
2022-09-12T10:32:02.201Z,100311
2022-09-12T10:33:06.223Z,100311
2022-09-12T10:34:00.433Z,100311
2022-09-12T10:35:02.986Z,100311
2022-09-12T10:36:00.945Z,100316
2022-09-12T10:37:03.568Z,100316
2022-09-12T10:38:01.763Z,100316
2022-09-12T10:39:01.142Z,100316
2022-09-12T10:40:01.402Z,100316
2022-09-12T10:41:02.545Z,100312
2022-09-12T10:42:00.482Z,100312
2022-09-12T10:43:01.076Z,100312
2022-09-12T10:44:10.170Z,100312
2022-09-12T10:45:00.516Z,100312
2022-09-12T10:46:10.231Z,100328
2022-09-12T10:47:10.169Z,100328
2022-09-12T10:48:06.750Z,100328
2022-09-12T10:49:10.178Z,100328
2022-09-12T10:50:20.813Z,100328
2022-09-12T10:51:00.465Z,100323
2022-09-12T10:52:10.182Z,100323
2022-09-12T10:53:10.169Z,100323
2022-09-12T10:54:01.481Z,100323
2022-09-12T10:55:00.386Z,100323
2022-09-12T10:56:01.294Z,100333
2022-09-12T10:57:10.167Z,100333
2022-09-12T10:58:07.294Z,100333
2022-09-12T10:59:10.169Z,100333
2022-09-12T11:00:09.331Z,100333
2022-09-12T11:01:08.212Z,100332
2022-09-12T11:02:08.182Z,100332
2022-09-12T11:03:10.184Z,100332
2022-09-12T11:04:10.179Z,100332
2022-09-12T11:05:10.197Z,100332
2022-09-12T11:06:00.471Z,100331
2022-09-12T11:07:10.181Z,100331
2022-09-12T11:08:08.880Z,100331
2022-09-12T11:09:00.243Z,100331
2022-09-12T11:10:10.182Z,100331
2022-09-12T11:11:10.106Z,100326
2022-09-12T11:12:04.792Z,100326
2022-09-12T11:13:00.243Z,100326
2022-09-12T11:14:10.173Z,100326
2022-09-12T11:15:06.597Z,100326
2022-09-12T11:16:10.233Z,100322
2022-09-12T11:17:01.256Z,100322
2022-09-12T11:18:10.180Z,100322
2022-09-12T11:19:10.168Z,100322
2022-09-12T11:20:10.169Z,100322
2022-09-12T11:21:07.707Z,100314
2022-09-12T11:22:07.691Z,100314
2022-09-12T11:23:10.179Z,100314
2022-09-12T11:24:00.247Z,100314
2022-09-12T11:25:07.673Z,100314
2022-09-12T11:26:01.264Z,100319
2022-09-12T11:27:08.436Z,100319
2022-09-12T11:28:09.601Z,100319
2022-09-12T11:29:01.264Z,100319
2022-09-12T11:30:09.834Z,100319
2022-09-12T11:31:03.597Z,100318
2022-09-12T11:32:03.580Z,100318
2022-09-12T11:33:03.510Z,100318
2022-09-12T11:34:01.600Z,100318
2022-09-12T11:35:13.924Z,100318
2022-09-12T11:36:01.947Z,100316
2022-09-12T11:37:10.950Z,100316
2022-09-12T11:38:03.520Z,100316
2022-09-12T11:39:01.250Z,100316
2022-09-12T11:40:06.848Z,100316
2022-09-12T11:41:03.656Z,100314
2022-09-12T11:42:03.395Z,100314
2022-09-12T11:43:10.166Z,100314
2022-09-12T11:44:10.165Z,100314
2022-09-12T11:45:02.949Z,100314
2022-09-12T11:46:05.895Z,100316
2022-09-12T11:47:04.140Z,100316
2022-09-12T11:48:05.303Z,100316
2022-09-12T11:49:03.983Z,100316
2022-09-12T11:50:02.582Z,100316
2022-09-12T11:51:02.108Z,100315
2022-09-12T11:52:09.960Z,100315
2022-09-12T11:53:10.173Z,100315
2022-09-12T11:54:01.257Z,100315
2022-09-12T11:55:02.732Z,100315
2022-09-12T11:56:05.127Z,100315
2022-09-12T11:57:06.830Z,100315
2022-09-12T11:58:00.256Z,100315
2022-09-12T11:59:03.698Z,100315
2022-09-12T12:00:04.308Z,100315
2022-09-12T12:01:10.190Z,100311
2022-09-12T12:02:00.868Z,100311
2022-09-12T12:03:10.262Z,100311
2022-09-12T12:04:05.201Z,100311
2022-09-12T12:05:00.248Z,100311
2022-09-12T12:06:03.837Z,100312
2022-09-12T12:07:09.282Z,100312
2022-09-12T12:08:01.400Z,100312
2022-09-12T12:09:03.012Z,100312
2022-09-12T12:10:00.604Z,100312
2022-09-12T12:11:02.007Z,100309
2022-09-12T12:12:03.130Z,100309
2022-09-12T12:13:02.383Z,100309
2022-09-12T12:14:05.359Z,100309
2022-09-12T12:15:00.910Z,100309
2022-09-12T12:16:03.426Z,100302
2022-09-12T12:17:00.477Z,100302
2022-09-12T12:18:01.774Z,100302
2022-09-12T12:19:02.295Z,100302
2022-09-12T12:20:06.413Z,100302
2022-09-12T12:21:10.213Z,100302
2022-09-12T12:22:10.187Z,100302
2022-09-12T12:23:00.366Z,100302
2022-09-12T12:24:01.253Z,100302
2022-09-12T12:25:10.234Z,100302
2022-09-12T12:26:01.228Z,100292
2022-09-12T12:27:01.330Z,100292
2022-09-12T12:28:00.412Z,100292